Time;durP1;ratioP1;P1;durP2;ratioP2;P2;SDS_P1;SDS_P2;PMS_P1;PMS_P2;Temp;Humidity;BMP_temperature;BMP_pressure;BME280_temperature;BME280_humidity;BME280_pressure;Samples;Min_cycle;Max_cycle;Signal;HPM_P1;HPM_P2
2023/02/08 00:00:10;;;;;;;;;;;;;;;22.74;15.55;99403.53;5053550;28;948;-79
2023/02/08 00:02:36;;;;;;;;;;;;;;;22.21;16.18;99418.91;5053292;28;862;-79
2023/02/08 00:05:01;;;;;;;;;;;;;;;22.59;15.66;99411.34;5055149;28;985;-79
2023/02/08 00:07:27;;;;;;;;;;;;;;;22.63;15.29;99414.94;5075471;28;1189;-79
2023/02/08 00:09:52;;;;;;;;;;;;;;;22.93;15.23;99407.03;5075995;28;766;-79
2023/02/08 00:12:18;;;;;;;;;;;;;;;22.79;15.39;99405.88;5075948;28;863;-79
2023/02/08 00:14:43;;;;;;;;;;;;;;;22.65;15.48;99408.88;5075791;28;953;-79
2023/02/08 00:17:08;;;;;;;;;;;;;;;23.18;15.01;99396.22;5075471;28;1902;-80
2023/02/08 00:19:34;;;;;;;;;;;;;;;23.03;15.25;99408.94;5075666;28;963;-80
2023/02/08 00:21:59;;;;;;;;;;;;;;;22.92;15.19;99406.22;5076390;28;935;-79
2023/02/08 00:24:25;;;;;;;;;;;;;;;23.52;14.73;99403.91;5056880;28;971;-80
2023/02/08 00:26:50;;;;;;;;;;;;;;;22.92;15.32;99411.09;5076204;28;871;-79
2023/02/08 00:29:16;;;;;;;;;;;;;;;22.86;15.50;99414.34;5075682;28;962;-79
2023/02/08 00:31:41;;;;;;;;;;;;;;;22.70;15.41;99410.47;5076124;28;830;-80
2023/02/08 00:34:06;;;;;;;;;;;;;;;22.33;15.98;99407.09;5075548;28;932;-80
2023/02/08 00:36:32;;;;;;;;;;;;;;;22.51;15.58;99406.94;5075481;28;1898;-79
2023/02/08 00:38:57;;;;;;;;;;;;;;;22.65;15.94;99414.53;5075689;28;882;-80
2023/02/08 00:41:23;;;;;;;;;;;;;;;22.52;15.69;99404.91;5075564;28;880;-79
2023/02/08 00:43:48;;;;;;;;;;;;;;;22.69;15.78;99414.50;5075940;28;971;-80
2023/02/08 00:46:14;;;;;;;;;;;;;;;22.68;15.66;99408.00;5073561;28;1326;-80
2023/02/08 00:48:39;;;;;;;;;;;;;;;22.74;15.44;99403.53;5076407;28;888;-79
2023/02/08 00:51:06;;;;;;;;;;;;;;;22.18;15.82;99408.44;5079134;28;971;-80
2023/02/08 00:53:34;;;;;;;;;;;;;;;22.20;15.85;99410.84;5079242;28;915;-79
2023/02/08 00:55:59;;;;;;;;;;;;;;;22.32;15.76;99413.97;5077933;28;970;-79
2023/02/08 00:58:25;;;;;;;;;;;;;;;22.22;15.88;99414.84;5060279;28;1423;-79
2023/02/08 01:00:51;;;;;;;;;;;;;;;22.41;15.75;99413.50;5079271;28;887;-80
2023/02/08 01:03:17;;;;;;;;;;;;;;;22.19;16.01;99410.03;5078864;28;906;-79
2023/02/08 01:05:42;;;;;;;;;;;;;;;22.36;15.98;99411.91;5078081;28;1016;-80
2023/02/08 01:08:08;;;;;;;;;;;;;;;22.32;15.80;99413.16;5077817;28;940;-80
2023/02/08 01:10:33;;;;;;;;;;;;;;;22.63;15.66;99411.31;5079434;28;839;-79
2023/02/08 01:13:00;;;;;;;;;;;;;;;22.58;15.55;99414.59;5079039;28;865;-79
2023/02/08 01:15:26;;;;;;;;;;;;;;;22.60;15.63;99417.84;5078768;28;911;-80
2023/02/08 01:17:54;;;;;;;;;;;;;;;22.92;15.26;99411.09;5077659;28;1980;-80
2023/02/08 01:20:20;;;;;;;;;;;;;;;22.71;15.66;99412.88;5061226;28;1308;-80
2023/02/08 01:22:46;;;;;;;;;;;;;;;22.61;15.75;99416.59;5077741;28;1019;-79
2023/02/08 01:25:11;;;;;;;;;;;;;;;22.30;15.72;99416.44;5061045;28;1288;-80
2023/02/08 01:27:36;;;;;;;;;;;;;;;22.50;15.82;99421.56;5077936;28;1129;-80
2023/02/08 01:30:02;;;;;;;;;;;;;;;22.49;15.95;99428.47;5077619;28;1188;-79
2023/02/08 01:32:27;;;;;;;;;;;;;;;22.22;15.95;99426.19;5096484;28;1199;-79
2023/02/08 01:34:53;;;;;;;;;;;;;;;22.42;15.78;99434.97;5096333;28;1104;-79
2023/02/08 01:37:18;;;;;;;;;;;;;;;22.79;15.49;99430.63;5096295;28;1972;-80
2023/02/08 01:39:45;;;;;;;;;;;;;;;22.83;15.25;99437.88;5046493;28;1063;-80
2023/02/08 01:42:14;;;;;;;;;;;;;;;22.49;15.33;99439.81;5096777;28;841;-79
2023/02/08 01:45:15;;;;;;;;;;;;;;;22.74;15.13;99434.75;5079705;28;1006;-80
2023/02/08 01:47:44;;;;;;;;;;;;;;;22.65;15.47;99431.56;5079389;28;1064;-80
2023/02/08 01:50:11;;;;;;;;;;;;;;;22.79;15.22;99439.13;5079403;28;1674;-79
2023/02/08 01:52:36;;;;;;;;;;;;;;;22.58;15.55;99435.25;5096536;28;897;-80
2023/02/08 01:55:05;;;;;;;;;;;;;;;22.78;15.27;99440.38;5095885;28;1167;-80
2023/02/08 01:57:30;;;;;;;;;;;;;;;22.18;15.54;99435.97;5079420;28;1918;-80
2023/02/08 01:59:57;;;;;;;;;;;;;;;22.11;16.00;99442.47;5095556;28;1101;-79
2023/02/08 02:02:23;;;;;;;;;;;;;;;22.99;14.78;99437.34;5096211;28;903;-80
2023/02/08 02:04:48;;;;;;;;;;;;;;;22.48;15.66;99441.00;5079135;28;933;-80
2023/02/08 02:07:14;;;;;;;;;;;;;;;22.83;14.86;99443.56;5113225;28;1299;-80
2023/02/08 02:09:47;;;;;;;;;;;;;;;22.26;15.50;99441.16;5066998;28;1362;-80
2023/02/08 02:12:12;;;;;;;;;;;;;;;22.79;14.95;99442.78;5038893;28;965;-80
2023/02/08 02:14:38;;;;;;;;;;;;;;;22.57;15.34;99442.16;5055602;28;1490;-80
2023/02/08 02:17:04;;;;;;;;;;;;;;;22.85;14.91;99441.13;5055690;28;1995;-79
2023/02/08 02:19:29;;;;;;;;;;;;;;;22.70;15.13;99448.16;5055551;28;1016;-80
2023/02/08 02:22:06;;;;;;;;;;;;;;;22.56;15.24;99456.75;5055584;28;1166;-79
2023/02/08 02:24:32;;;;;;;;;;;;;;;22.59;15.25;99461.63;5055093;28;1015;-79
2023/02/08 02:26:58;;;;;;;;;;;;;;;22.82;14.68;99461.81;5055502;28;919;-79
2023/02/08 02:29:32;;;;;;;;;;;;;;;23.13;14.85;99461.97;5038683;28;1142;-79
2023/02/08 02:32:01;;;;;;;;;;;;;;;23.05;14.79;99463.25;5038545;28;1130;-80
2023/02/08 02:34:26;;;;;;;;;;;;;;;22.56;15.00;99462.44;5055387;28;977;-80
2023/02/08 02:36:52;;;;;;;;;;;;;;;22.58;14.80;99459.97;5055054;28;1980;-80
2023/02/08 02:39:17;;;;;;;;;;;;;;;22.75;14.73;99470.41;5072075;28;966;-80
2023/02/08 02:45:01;;;;;;;;;;;;;;;22.88;14.51;99468.69;5076054;28;1184;-80
2023/02/08 02:47:38;;;;;;;;;;;;;;;22.51;14.75;99474.22;5076389;28;921;-80
2023/02/08 02:50:07;;;;;;;;;;;;;;;22.85;14.57;99480.84;5076351;28;916;-80
2023/02/08 02:52:52;;;;;;;;;;;;;;;22.46;14.82;99474.66;5075859;28;932;-80
2023/02/08 02:55:19;;;;;;;;;;;;;;;22.47;14.84;99482.75;5075320;28;938;-80
2023/02/08 02:57:45;;;;;;;;;;;;;;;22.79;14.54;99482.50;5075934;28;1910;-80
2023/02/08 03:00:10;;;;;;;;;;;;;;;23.20;14.09;99487.44;5058755;28;992;-80
2023/02/08 03:02:36;;;;;;;;;;;;;;;22.69;14.60;99491.09;5042789;28;1222;-80
2023/02/08 03:05:02;;;;;;;;;;;;;;;22.60;14.90;99497.25;5075310;28;899;-80
2023/02/08 03:07:30;;;;;;;;;;;;;;;22.70;14.83;99507.72;5058708;28;1024;-80
2023/02/08 03:10:05;;;;;;;;;;;;;;;23.06;14.43;99501.81;5076597;28;844;-80
2023/02/08 03:12:39;;;;;;;;;;;;;;;22.44;14.81;99514.00;5076603;28;798;-80
2023/02/08 03:15:07;;;;;;;;;;;;;;;22.54;14.85;99513.91;5075371;28;1081;-79
2023/02/08 03:17:51;;;;;;;;;;;;;;;22.65;14.71;99516.69;5059021;28;1918;-80
2023/02/08 03:20:24;;;;;;;;;;;;;;;22.66;14.88;99511.81;5076993;28;911;-81
2023/02/08 03:22:49;;;;;;;;;;;;;;;22.38;14.66;99519.25;5075347;28;964;-80
2023/02/08 03:25:38;;;;;;;;;;;;;;;22.50;15.03;99520.84;5076894;28;1078;-80
2023/02/08 03:28:13;;;;;;;;;;;;;;;22.68;14.62;99515.03;5053924;28;1194;-80
2023/02/08 03:30:47;;;;;;;;;;;;;;;22.59;14.69;99518.34;5037644;28;920;-80
2023/02/08 03:33:32;;;;;;;;;;;;;;;22.32;15.01;99524.56;5038301;28;1068;-80
2023/02/08 03:36:05;;;;;;;;;;;;;;;22.47;14.90;99519.63;5053206;28;1062;-80
2023/02/08 03:38:40;;;;;;;;;;;;;;;22.36;14.97;99516.84;5053697;28;1981;-80
2023/02/08 03:41:06;;;;;;;;;;;;;;;22.44;14.79;99517.63;5037333;28;990;-80
2023/02/08 03:43:36;;;;;;;;;;;;;;;22.68;14.77;99515.03;5013997;28;1109;-80
2023/02/08 03:46:01;;;;;;;;;;;;;;;22.94;14.58;99516.50;4997599;28;1002;-80
2023/02/08 03:48:27;;;;;;;;;;;;;;;22.97;14.24;99527.00;5014243;28;1029;-80
2023/02/08 03:50:52;;;;;;;;;;;;;;;22.76;14.56;99517.41;4997828;28;934;-78
2023/02/08 03:53:19;;;;;;;;;;;;;;;22.99;14.26;99524.56;5013865;28;933;-79
2023/02/08 03:55:44;;;;;;;;;;;;;;;22.85;14.41;99531.94;4997596;28;938;-79
2023/02/08 03:58:18;;;;;;;;;;;;;;;22.67;14.61;99524.78;4996828;28;1918;-79
2023/02/08 04:00:45;;;;;;;;;;;;;;;23.04;14.23;99532.63;5013490;28;921;-79
2023/02/08 04:03:13;;;;;;;;;;;;;;;22.72;14.66;99527.97;4997021;28;850;-79
2023/02/08 04:05:38;;;;;;;;;;;;;;;22.81;14.41;99531.16;5015496;28;1185;-79
2023/02/08 04:08:04;;;;;;;;;;;;;;;22.69;14.41;99534.50;5036963;28;949;-79
2023/02/08 04:10:29;;;;;;;;;;;;;;;23.11;14.35;99533.38;5053503;28;903;-79
2023/02/08 04:12:55;;;;;;;;;;;;;;;22.49;14.79;99530.56;5020392;28;990;-79
2023/02/08 04:15:21;;;;;;;;;;;;;;;22.35;14.61;99532.25;5071846;28;847;-79
2023/02/08 04:17:46;;;;;;;;;;;;;;;22.18;14.97;99543.69;5073621;28;1978;-79
2023/02/08 04:20:11;;;;;;;;;;;;;;;22.59;14.66;99556.03;5074905;28;1330;-79
2023/02/08 04:22:37;;;;;;;;;;;;;;;22.29;14.76;99555.78;5075300;28;1169;-79
2023/02/08 04:25:02;;;;;;;;;;;;;;;22.87;14.33;99563.53;5079249;28;1311;-79
2023/02/08 04:27:28;;;;;;;;;;;;;;;22.70;14.42;99558.81;5078272;28;1149;-79
2023/02/08 04:29:53;;;;;;;;;;;;;;;22.80;14.34;99569.28;5078752;28;1331;-79
2023/02/08 04:32:19;;;;;;;;;;;;;;;22.98;13.86;99576.88;5078899;28;1145;-79
2023/02/08 04:34:44;;;;;;;;;;;;;;;22.26;14.61;99580.09;5077724;28;1472;-79
2023/02/08 04:37:10;;;;;;;;;;;;;;;22.79;14.33;99590.34;5078604;28;1902;-79
2023/02/08 04:39:36;;;;;;;;;;;;;;;22.72;14.50;99590.41;5077061;28;1425;-79
2023/02/08 04:42:01;;;;;;;;;;;;;;;22.47;14.28;99595.41;5078995;28;1585;-78
2023/02/08 04:44:27;;;;;;;;;;;;;;;22.67;14.26;99590.84;5079118;28;1379;-79
2023/02/08 04:46:52;;;;;;;;;;;;;;;22.72;14.27;99600.94;5079368;28;1709;-79
2023/02/08 04:49:17;;;;;;;;;;;;;;;22.68;14.39;99598.13;5079378;28;977;-79
2023/02/08 04:51:43;;;;;;;;;;;;;;;22.52;14.67;99603.47;5079069;28;1008;-79
2023/02/08 04:54:08;;;;;;;;;;;;;;;22.74;14.13;99598.50;5079271;28;919;-79
2023/02/08 04:56:34;;;;;;;;;;;;;;;22.03;15.03;99596.78;5111281;28;1905;-79
2023/02/08 04:59:00;;;;;;;;;;;;;;;22.54;14.72;99595.38;5076467;28;1620;-79
2023/02/08 05:01:25;;;;;;;;;;;;;;;22.77;14.20;99601.31;5079330;28;910;-79
2023/02/08 05:03:50;;;;;;;;;;;;;;;22.70;14.43;99609.88;5078852;28;980;-79
2023/02/08 05:06:16;;;;;;;;;;;;;;;21.99;15.17;99613.78;5079358;28;1170;-79
2023/02/08 05:08:41;;;;;;;;;;;;;;;22.58;14.73;99608.31;5078572;28;1036;-79
2023/02/08 05:11:07;;;;;;;;;;;;;;;22.65;14.62;99612.34;5078983;28;910;-79
2023/02/08 05:13:32;;;;;;;;;;;;;;;22.53;14.60;99605.09;5073756;28;1607;-79
2023/02/08 05:15:58;;;;;;;;;;;;;;;22.88;14.19;99616.28;5058908;28;907;-81
2023/02/08 05:18:23;;;;;;;;;;;;;;;22.93;14.19;99608.53;5059330;28;1967;-79
2023/02/08 05:20:55;;;;;;;;;;;;;;;22.10;14.82;99616.59;5077619;28;1839;-78
2023/02/08 05:23:21;;;;;;;;;;;;;;;22.84;14.26;99615.44;5105895;28;1540;-78
2023/02/08 05:25:46;;;;;;;;;;;;;;;22.35;14.60;99606.00;5078671;28;832;-78
2023/02/08 05:28:12;;;;;;;;;;;;;;;22.40;14.59;99613.28;5060112;28;997;-79
2023/02/08 05:30:37;;;;;;;;;;;;;;;21.91;15.21;99608.53;5078339;28;1003;-79
2023/02/08 05:33:03;;;;;;;;;;;;;;;22.65;14.46;99613.16;5077368;28;1231;-79
2023/02/08 05:35:28;;;;;;;;;;;;;;;22.51;14.42;99610.38;5110298;28;940;-79
2023/02/08 05:37:53;;;;;;;;;;;;;;;22.72;14.50;99618.78;5076054;28;1918;-79
2023/02/08 05:40:19;;;;;;;;;;;;;;;22.60;14.51;99616.41;5078394;28;1296;-79
2023/02/08 05:42:46;;;;;;;;;;;;;;;22.77;14.49;99614.69;5078492;28;951;-79
2023/02/08 05:45:12;;;;;;;;;;;;;;;22.73;14.17;99617.53;5078500;28;1007;-79
2023/02/08 05:47:37;;;;;;;;;;;;;;;23.31;14.02;99626.50;5078258;28;916;-79
2023/02/08 05:50:03;;;;;;;;;;;;;;;22.69;14.35;99625.28;5077408;28;1295;-79
2023/02/08 05:52:28;;;;;;;;;;;;;;;22.77;14.21;99629.69;5078424;28;987;-78
2023/02/08 05:54:53;;;;;;;;;;;;;;;22.77;14.48;99626.84;5078460;28;817;-79
2023/02/08 05:57:19;;;;;;;;;;;;;;;22.68;14.37;99626.50;5078227;28;1914;-79
2023/02/08 05:59:44;;;;;;;;;;;;;;;22.22;14.75;99629.53;5077862;28;913;-80
2023/02/08 06:02:10;;;;;;;;;;;;;;;22.45;14.52;99637.56;5077961;28;917;-79
2023/02/08 06:04:35;;;;;;;;;;;;;;;23.03;13.98;99644.56;5078011;28;993;-79
2023/02/08 06:07:00;;;;;;;;;;;;;;;23.11;13.90;99663.19;5059053;28;1600;-79
2023/02/08 06:09:26;;;;;;;;;;;;;;;21.94;15.05;99653.06;5057703;28;846;-79
2023/02/08 06:11:51;;;;;;;;;;;;;;;22.48;14.91;99665.88;5058018;28;862;-79
2023/02/08 06:14:17;;;;;;;;;;;;;;;22.34;14.60;99658.25;5055893;28;943;-79
2023/02/08 06:16:42;;;;;;;;;;;;;;;22.51;14.85;99667.13;5057503;28;1981;-79
2023/02/08 06:19:08;;;;;;;;;;;;;;;22.30;14.83;99657.47;5057440;28;990;-79
2023/02/08 06:21:33;;;;;;;;;;;;;;;22.76;14.35;99664.97;5057257;28;1388;-79
2023/02/08 06:23:59;;;;;;;;;;;;;;;22.67;14.10;99656.09;5089051;28;1005;-79
2023/02/08 06:26:24;;;;;;;;;;;;;;;23.03;14.30;99672.97;5057823;28;921;-79
2023/02/08 06:28:50;;;;;;;;;;;;;;;22.27;14.64;99661.09;5057173;28;875;-79
2023/02/08 06:31:15;;;;;;;;;;;;;;;22.74;14.40;99658.91;5057441;28;955;-79
2023/02/08 06:33:40;;;;;;;;;;;;;;;22.85;14.10;99673.84;5057311;28;875;-79
2023/02/08 06:36:06;;;;;;;;;;;;;;;22.32;14.68;99677.69;5056995;28;1311;-79
2023/02/08 06:38:31;;;;;;;;;;;;;;;22.47;14.60;99669.94;5057441;28;1963;-79
2023/02/08 06:40:57;;;;;;;;;;;;;;;22.52;14.55;99680.06;5057764;28;916;-79
2023/02/08 06:43:23;;;;;;;;;;;;;;;21.96;15.28;99684.63;5057265;28;861;-79
2023/02/08 06:45:48;;;;;;;;;;;;;;;22.43;14.59;99679.69;5056406;28;945;-79
2023/02/08 06:48:14;;;;;;;;;;;;;;;22.44;14.45;99681.34;5056389;28;1208;-79
2023/02/08 06:50:39;;;;;;;;;;;;;;;22.59;14.52;99689.38;5067497;28;1415;-79
2023/02/08 06:53:05;;;;;;;;;;;;;;;22.91;14.33;99681.97;5108679;28;1055;-79
2023/02/08 06:55:30;;;;;;;;;;;;;;;22.52;14.48;99695.06;5077229;28;834;-79
2023/02/08 06:57:56;;;;;;;;;;;;;;;22.75;14.57;99686.06;5076411;28;1980;-79
2023/02/08 07:00:21;;;;;;;;;;;;;;;22.08;14.62;99687.06;5076667;28;889;-79
2023/02/08 07:02:47;;;;;;;;;;;;;;;22.55;14.67;99699.13;5076814;28;888;-79
2023/02/08 07:05:13;;;;;;;;;;;;;;;22.47;14.55;99706.03;5075856;28;1355;-79
2023/02/08 07:07:38;;;;;;;;;;;;;;;22.48;14.73;99701.97;5108848;28;1122;-79
2023/02/08 07:10:04;;;;;;;;;;;;;;;22.14;15.08;99696.00;5076523;28;1095;-78
2023/02/08 07:12:32;;;;;;;;;;;;;;;22.29;14.63;99701.22;5076707;28;920;-79
2023/02/08 07:14:57;;;;;;;;;;;;;;;22.48;14.40;99710.47;5066365;28;1562;-79
2023/02/08 07:17:22;;;;;;;;;;;;;;;22.55;14.54;99704.78;5056308;28;1898;-79
2023/02/08 07:19:48;;;;;;;;;;;;;;;22.35;14.57;99713.75;5108529;27;1381;-79
2023/02/08 07:22:13;;;;;;;;;;;;;;;22.92;14.05;99700.59;5056285;28;946;-79
2023/02/08 07:24:39;;;;;;;;;;;;;;;22.74;14.24;99710.00;5056893;28;878;-79
2023/02/08 07:27:05;;;;;;;;;;;;;;;22.30;14.81;99711.34;5038631;28;958;-79
2023/02/08 07:29:31;;;;;;;;;;;;;;;22.61;14.55;99705.97;5038553;28;1495;-79
2023/02/08 07:31:57;;;;;;;;;;;;;;;22.91;14.02;99704.69;5055010;28;953;-80
2023/02/08 07:34:22;;;;;;;;;;;;;;;22.00;14.94;99696.78;5056116;28;1347;-79
2023/02/08 07:36:48;;;;;;;;;;;;;;;22.08;14.79;99704.06;5056153;28;1906;-78
2023/02/08 07:39:14;;;;;;;;;;;;;;;22.41;14.54;99704.81;5054946;28;1461;-79
2023/02/08 07:41:39;;;;;;;;;;;;;;;22.72;14.55;99703.09;5055702;28;1164;-78
2023/02/08 07:44:05;;;;;;;;;;;;;;;22.84;14.15;99705.47;5056082;28;836;-79
2023/02/08 07:46:30;;;;;;;;;;;;;;;22.63;14.48;99712.84;5056539;28;918;-79
2023/02/08 07:48:56;;;;;;;;;;;;;;;22.72;14.42;99715.25;5055815;28;1291;-80
2023/02/08 07:51:21;;;;;;;;;;;;;;;22.28;14.69;99716.63;5055776;28;867;-79
2023/02/08 07:53:46;;;;;;;;;;;;;;;22.45;14.38;99711.31;5056118;28;851;-79
2023/02/08 07:56:12;;;;;;;;;;;;;;;23.09;14.23;99720.38;5055841;28;1419;-79
2023/02/08 07:58:37;;;;;;;;;;;;;;;22.56;14.51;99714.91;5055176;28;1906;-79
2023/02/08 08:01:03;;;;;;;;;;;;;;;22.83;14.16;99716.00;5088432;28;863;-79
2023/02/08 08:03:28;;;;;;;;;;;;;;;22.94;14.12;99727.34;5058217;28;1549;-78
2023/02/08 08:05:54;;;;;;;;;;;;;;;22.03;14.72;99718.66;5088100;28;1315;-79
2023/02/08 08:08:21;;;;;;;;;;;;;;;22.73;14.54;99728.22;5056135;28;1021;-79
2023/02/08 08:10:46;;;;;;;;;;;;;;;22.94;14.04;99720.88;5055725;28;1102;-79
2023/02/08 08:13:12;;;;;;;;;;;;;;;22.62;14.49;99733.13;5054962;28;831;-79
2023/02/08 08:15:38;;;;;;;;;;;;;;;22.78;14.15;99736.31;5056088;28;863;-79
2023/02/08 08:18:03;;;;;;;;;;;;;;;23.14;14.09;99730.50;5088952;28;1979;-79
2023/02/08 08:20:29;;;;;;;;;;;;;;;22.70;14.45;99739.59;5075962;28;968;-79
2023/02/08 08:22:54;;;;;;;;;;;;;;;22.85;14.08;99739.13;5076501;28;867;-79
2023/02/08 08:25:20;;;;;;;;;;;;;;;22.65;14.46;99738.00;5093824;28;1164;-79
2023/02/08 08:27:45;;;;;;;;;;;;;;;22.38;14.59;99734.00;5076683;28;1076;-79
2023/02/08 08:30:11;;;;;;;;;;;;;;;22.43;14.35;99736.41;5093911;28;997;-79
2023/02/08 08:32:37;;;;;;;;;;;;;;;22.25;14.85;99734.44;5071980;28;1367;-79
2023/02/08 08:35:03;;;;;;;;;;;;;;;22.87;14.34;99736.69;5053059;28;1427;-79
2023/02/08 08:37:28;;;;;;;;;;;;;;;22.80;14.14;99731.03;5053471;28;1913;-79
2023/02/08 08:39:54;;;;;;;;;;;;;;;22.56;14.70;99729.09;5053059;28;1088;-79
2023/02/08 08:42:19;;;;;;;;;;;;;;;23.34;13.68;99728.75;5053286;28;975;-79
2023/02/08 08:44:45;;;;;;;;;;;;;;;22.99;14.27;99746.78;5053063;28;947;-79
2023/02/08 08:47:11;;;;;;;;;;;;;;;22.49;14.52;99734.81;5053507;28;952;-79
2023/02/08 08:49:36;;;;;;;;;;;;;;;22.46;14.69;99738.44;5046761;28;1396;-79
2023/02/08 08:52:02;;;;;;;;;;;;;;;22.22;14.85;99735.25;5069970;28;1413;-79
2023/02/08 08:54:27;;;;;;;;;;;;;;;22.44;14.98;99732.38;5072948;28;973;-79
2023/02/08 08:56:53;;;;;;;;;;;;;;;22.32;14.61;99733.59;5058268;28;1988;-79
2023/02/08 08:59:18;;;;;;;;;;;;;;;22.69;14.51;99730.28;5053338;28;923;-79
2023/02/08 09:01:44;;;;;;;;;;;;;;;22.41;14.79;99728.31;5053256;28;982;-79
2023/02/08 09:04:09;;;;;;;;;;;;;;;22.45;14.78;99731.16;5052873;28;913;-79
2023/02/08 09:06:34;;;;;;;;;;;;;;;23.20;13.86;99733.69;5047519;28;1345;-79
2023/02/08 09:09:00;;;;;;;;;;;;;;;22.54;14.41;99737.22;5053487;28;902;-79
2023/02/08 09:11:26;;;;;;;;;;;;;;;22.20;14.60;99734.84;5058829;28;1210;-79
2023/02/08 09:13:54;;;;;;;;;;;;;;;22.97;14.36;99729.38;5091581;28;927;-79
2023/02/08 09:16:19;;;;;;;;;;;;;;;22.27;14.57;99734.03;5059449;28;928;-79
2023/02/08 09:18:45;;;;;;;;;;;;;;;22.83;14.15;99733.03;5091586;28;922;-79
2023/02/08 09:21:11;;;;;;;;;;;;;;;22.96;14.30;99729.78;5072193;28;1371;-79
2023/02/08 09:23:37;;;;;;;;;;;;;;;22.81;14.38;99735.50;5060890;28;881;-79
2023/02/08 09:26:08;;;;;;;;;;;;;;;22.79;14.22;99746.44;5078644;28;881;-78
2023/02/08 09:28:33;;;;;;;;;;;;;;;22.63;14.55;99746.09;5111545;28;958;-78
2023/02/08 09:31:00;;;;;;;;;;;;;;;22.77;14.21;99743.22;5078706;28;864;-78
2023/02/08 09:33:26;;;;;;;;;;;;;;;22.95;14.03;99745.19;5077973;28;959;-79
2023/02/08 09:35:51;;;;;;;;;;;;;;;22.61;14.43;99742.88;5109619;28;1358;-79
2023/02/08 09:38:17;;;;;;;;;;;;;;;22.58;14.37;99740.84;5110156;28;1914;-78
2023/02/08 09:40:48;;;;;;;;;;;;;;;22.10;15.17;99741.31;5077470;28;904;-79
2023/02/08 09:43:17;;;;;;;;;;;;;;;22.71;14.63;99736.34;5111740;28;905;-78
2023/02/08 09:45:47;;;;;;;;;;;;;;;22.25;14.65;99739.31;5111430;28;935;-79
2023/02/08 09:48:13;;;;;;;;;;;;;;;22.36;14.62;99732.38;5111240;28;860;-78
2023/02/08 09:50:53;;;;;;;;;;;;;;;22.57;14.38;99736.38;5077970;28;1284;-79
2023/02/08 09:53:19;;;;;;;;;;;;;;;22.33;14.70;99738.09;5078688;28;853;-79
2023/02/08 09:55:52;;;;;;;;;;;;;;;22.07;15.15;99725.09;5078954;28;947;-79
2023/02/08 09:58:33;;;;;;;;;;;;;;;22.47;14.57;99740.06;5110939;28;1984;-79
2023/02/08 10:00:58;;;;;;;;;;;;;;;22.22;15.12;99732.41;5078446;28;1007;-79
2023/02/08 10:03:30;;;;;;;;;;;;;;;22.33;14.76;99732.41;5097585;28;1397;-79
2023/02/08 10:05:55;;;;;;;;;;;;;;;22.80;14.20;99736.72;5058636;28;1255;-79
2023/02/08 10:08:21;;;;;;;;;;;;;;;22.74;14.15;99729.03;5090212;28;885;-78
2023/02/08 10:11:04;;;;;;;;;;;;;;;22.40;14.65;99723.88;5093830;28;1324;-79
2023/02/08 10:13:48;;;;;;;;;;;;;;;22.86;14.50;99732.22;5110664;28;931;-79
2023/02/08 10:16:19;;;;;;;;;;;;;;;22.54;14.76;99725.88;5077420;28;1969;-78
2023/02/08 10:18:45;;;;;;;;;;;;;;;22.48;14.94;99728.28;5078188;28;1914;-79
2023/02/08 10:21:25;;;;;;;;;;;;;;;22.59;14.71;99733.97;5077580;28;863;-79
2023/02/08 10:23:55;;;;;;;;;;;;;;;22.57;14.54;99742.06;5076284;28;1081;-78
2023/02/08 10:26:20;;;;;;;;;;;;;;;22.11;14.78;99734.44;5075842;28;1299;-78
2023/02/08 10:29:05;;;;;;;;;;;;;;;22.24;14.84;99740.53;5076581;28;999;-78
2023/02/08 10:31:45;;;;;;;;;;;;;;;22.90;14.21;99732.25;5078193;28;921;-78
2023/02/08 10:34:11;;;;;;;;;;;;;;;22.23;15.09;99739.72;5075940;28;1430;-79
2023/02/08 10:36:40;;;;;;;;;;;;;;;22.28;14.87;99724.31;5077739;28;1901;-78
2023/02/08 10:39:16;;;;;;;;;;;;;;;22.74;14.55;99729.84;5077937;28;885;-79
2023/02/08 10:41:41;;;;;;;;;;;;;;;22.09;15.20;99740.50;5077643;28;882;-79
2023/02/08 10:44:19;;;;;;;;;;;;;;;22.13;15.05;99729.19;5109182;28;1386;-79
2023/02/08 10:47:05;;;;;;;;;;;;;;;22.33;14.83;99721.88;5077377;28;956;-78
2023/02/08 10:49:38;;;;;;;;;;;;;;;22.69;14.76;99718.94;5075888;28;994;-78
2023/02/08 10:52:04;;;;;;;;;;;;;;;22.73;14.57;99722.53;5109924;28;927;-78
2023/02/08 10:54:30;;;;;;;;;;;;;;;22.41;15.06;99721.84;5075879;28;1149;-79
2023/02/08 10:57:03;;;;;;;;;;;;;;;23.00;14.37;99719.19;5077186;28;1906;-79
2023/02/08 10:59:29;;;;;;;;;;;;;;;22.42;15.19;99729.13;5089233;28;1379;-78
2023/02/08 11:01:55;;;;;;;;;;;;;;;22.93;14.49;99724.94;5089714;28;873;-78
2023/02/08 11:04:20;;;;;;;;;;;;;;;22.86;14.42;99725.75;5057516;28;825;-78
2023/02/08 11:06:46;;;;;;;;;;;;;;;22.76;14.53;99727.41;5057069;28;1251;-78
2023/02/08 11:09:21;;;;;;;;;;;;;;;22.87;14.71;99727.34;5057164;28;909;-78
2023/02/08 11:11:49;;;;;;;;;;;;;;;22.49;14.86;99731.97;5089699;28;842;-79
2023/02/08 11:14:15;;;;;;;;;;;;;;;22.43;14.87;99736.41;5060329;28;1334;-78
2023/02/08 11:16:42;;;;;;;;;;;;;;;22.35;14.73;99733.59;5089706;28;1918;-78
2023/02/08 11:19:13;;;;;;;;;;;;;;;22.61;14.78;99742.88;5088851;28;914;-79
2023/02/08 11:21:39;;;;;;;;;;;;;;;22.53;14.86;99741.25;5088905;28;902;-78
2023/02/08 11:24:04;;;;;;;;;;;;;;;22.60;14.88;99741.25;5056819;28;922;-78
2023/02/08 11:26:30;;;;;;;;;;;;;;;22.58;14.80;99744.47;5088920;28;895;-78
2023/02/08 11:29:12;;;;;;;;;;;;;;;22.58;14.75;99749.34;5067873;28;1385;-78
2023/02/08 11:31:39;;;;;;;;;;;;;;;22.38;15.28;99734.00;5109120;28;955;-78
2023/02/08 11:34:08;;;;;;;;;;;;;;;22.83;14.36;99733.03;5075605;28;887;-78
2023/02/08 11:36:34;;;;;;;;;;;;;;;23.05;14.31;99730.13;5109051;28;1968;-78
2023/02/08 11:39:00;;;;;;;;;;;;;;;22.97;14.72;99742.75;5109613;28;855;-79
2023/02/08 11:41:25;;;;;;;;;;;;;;;22.53;15.04;99744.09;5108840;28;997;-78
2023/02/08 11:44:11;;;;;;;;;;;;;;;22.78;14.46;99741.16;5075686;28;1454;-78
2023/02/08 11:46:38;;;;;;;;;;;;;;;22.94;14.51;99746.41;5109250;28;985;-78
2023/02/08 11:49:03;;;;;;;;;;;;;;;22.33;14.78;99743.75;5075207;28;903;-79
2023/02/08 11:51:38;;;;;;;;;;;;;;;22.98;14.49;99750.84;5074972;28;852;-78
2023/02/08 11:54:04;;;;;;;;;;;;;;;21.98;15.45;99745.38;5076925;28;896;-79
2023/02/08 11:56:30;;;;;;;;;;;;;;;22.54;15.25;99748.56;5108869;28;1959;-78
2023/02/08 11:58:56;;;;;;;;;;;;;;;22.09;15.37;99745.38;5074466;28;1356;-78
2023/02/08 12:01:24;;;;;;;;;;;;;;;22.44;15.06;99743.72;5076586;28;913;-78
2023/02/08 12:03:50;;;;;;;;;;;;;;;22.43;14.78;99744.94;5070666;28;1332;-78
2023/02/08 12:06:15;;;;;;;;;;;;;;;22.50;15.20;99739.25;5108395;28;1093;-78
2023/02/08 12:09:02;;;;;;;;;;;;;;;22.48;14.86;99725.47;5075756;28;910;-78
2023/02/08 12:11:30;;;;;;;;;;;;;;;22.25;15.14;99742.94;5108470;28;910;-78
2023/02/08 12:13:59;;;;;;;;;;;;;;;22.17;15.07;99741.31;5108633;28;1013;-78
2023/02/08 12:16:33;;;;;;;;;;;;;;;22.53;14.83;99730.72;5075601;28;965;-78
2023/02/08 12:19:17;;;;;;;;;;;;;;;22.32;15.10;99742.13;5059208;28;1634;-78
2023/02/08 12:21:43;;;;;;;;;;;;;;;22.79;14.81;99743.59;5055873;28;854;-78
2023/02/08 12:24:24;;;;;;;;;;;;;;;22.52;14.91;99745.31;5088200;28;1117;-79
2023/02/08 12:26:49;;;;;;;;;;;;;;;22.55;15.08;99753.81;5055583;28;861;-78
2023/02/08 12:29:21;;;;;;;;;;;;;;;22.91;14.83;99750.91;5055958;28;964;-79
2023/02/08 12:31:53;;;;;;;;;;;;;;;22.99;14.72;99751.66;5088148;28;1320;-78
2023/02/08 12:34:26;;;;;;;;;;;;;;;22.82;14.47;99748.47;5055988;28;1066;-78
2023/02/08 12:43:14;;;;;;;;;;;;;;;22.66;14.56;99750.94;5053053;28;938;-79
2023/02/08 12:45:58;;;;;;;;;;;;;;;22.57;14.88;99753.41;5040697;28;1098;-78
2023/02/08 12:48:32;;;;;;;;;;;;;;;22.31;15.24;99755.50;5056231;28;1464;-79
2023/02/08 12:51:00;;;;;;;;;;;;;;;22.38;14.90;99756.69;5057291;28;1210;-79
2023/02/08 12:53:29;;;;;;;;;;;;;;;22.49;14.81;99752.63;5074109;28;926;-79
2023/02/08 12:55:55;;;;;;;;;;;;;;;22.56;14.75;99771.66;5057748;28;888;-79
2023/02/08 12:58:20;;;;;;;;;;;;;;;22.58;14.86;99766.38;5074167;28;1922;-78
2023/02/08 13:00:46;;;;;;;;;;;;;;;22.75;14.63;99770.41;5057105;28;869;-78
2023/02/08 13:03:30;;;;;;;;;;;;;;;22.76;14.43;99778.47;5072526;28;1295;-79
2023/02/08 13:05:56;;;;;;;;;;;;;;;22.93;14.64;99770.34;5076767;28;1065;-78
2023/02/08 13:08:27;;;;;;;;;;;;;;;22.62;14.87;99770.00;5057089;28;1001;-78
2023/02/08 13:10:56;;;;;;;;;;;;;;;22.36;14.96;99776.97;5056938;28;1303;-79
2023/02/08 13:13:23;;;;;;;;;;;;;;;22.57;14.90;99781.78;5040241;28;1006;-78